Relief, North Carolina
Current Conditions -  °F | °C
As of 6:15 PM on Wednesday 17 Dec 2014 (Local Time) from K0A9 Reporting Station
Clear Clear  
Wind Chill:   Ceiling: Unl
Heat Index:   Visibility: 10mi
Dew Point: -1°   Wind: 5mph
Humidity: 75%   Direction: 260°W
Pressure: 30.15"   Gusts: NA
Location:  35.955°N, 82.2044°W
Report Text: K0A9 172315Z AUTO 26004KT 10SM CLR 03/M01 A3015 RMK
Loading
Personal Weather Stations






























Interactive Weather Map New forecast layout! Learn more

10-Day Weather Forecast

Advertisements
Track Severe Weather on mobile